Time;durP1;ratioP1;P1;durP2;ratioP2;P2;SDS_P1;SDS_P2;PMS_P1;PMS_P2;Temp;Humidity;BMP_temperature;BMP_pressure;BME280_temperature;BME280_humidity;BME280_pressure;Samples;Min_cycle;Max_cycle;Signal;HPM_P1;HPM_P2
2022/03/29 00:01:58;;;;;;;29.00;15.82;;;10.10;93.20;;;;;;4971789;28;20043;-71
2022/03/29 00:04:24;;;;;;;31.88;16.50;;;9.90;93.70;;;;;;4972304;28;20070;-71
2022/03/29 00:06:50;;;;;;;32.70;16.85;;;9.80;94.00;;;;;;4954604;28;20475;-72
2022/03/29 00:09:16;;;;;;;28.17;15.57;;;9.80;94.10;;;;;;4975059;28;20035;-71
2022/03/29 00:11:42;;;;;;;27.40;15.40;;;10.00;93.40;;;;;;4975670;28;20340;-70
2022/03/29 00:14:07;;;;;;;28.60;16.02;;;10.10;93.40;;;;;;4975696;28;20027;-70
2022/03/29 00:16:33;;;;;;;30.80;16.90;;;9.80;93.90;;;;;;4975578;28;20330;-72
2022/03/29 00:18:59;;;;;;;33.15;17.02;;;9.80;94.10;;;;;;4976161;28;20341;-71
2022/03/29 00:21:25;;;;;;;31.65;17.02;;;9.90;94.20;;;;;;4975676;28;20456;-71
2022/03/29 00:23:51;;;;;;;32.08;17.13;;;9.70;94.30;;;;;;4958639;28;20419;-70
2022/03/29 00:26:17;;;;;;;31.75;16.98;;;9.70;94.60;;;;;;4975391;28;20111;-71
2022/03/29 00:28:43;;;;;;;34.50;17.75;;;9.70;94.60;;;;;;4975674;28;20130;-71
2022/03/29 00:31:12;;;;;;;36.58;17.77;;;9.80;94.70;;;;;;4975918;28;20081;-71
2022/03/29 00:33:38;;;;;;;35.17;17.50;;;9.70;94.60;;;;;;4975486;28;20031;-71
2022/03/29 00:36:07;;;;;;;36.28;18.08;;;9.60;94.90;;;;;;4958128;28;20106;-70
2022/03/29 00:38:32;;;;;;;33.50;18.05;;;9.70;94.90;;;;;;4975269;28;20087;-72
2022/03/29 00:40:59;;;;;;;34.53;17.95;;;9.80;94.70;;;;;;4975166;28;20078;-71
2022/03/29 00:43:25;;;;;;;34.03;17.50;;;9.90;94.60;;;;;;4958374;28;20034;-71
2022/03/29 00:45:51;;;;;;;33.63;18.10;;;9.90;94.50;;;;;;4974985;28;20122;-71
2022/03/29 00:48:17;;;;;;;32.50;17.23;;;9.70;94.70;;;;;;4975291;28;20039;-70
2022/03/29 00:50:43;;;;;;;33.45;18.55;;;9.60;94.90;;;;;;4974983;28;20483;-70
2022/03/29 00:53:09;;;;;;;34.13;17.52;;;9.70;94.90;;;;;;4974841;28;20041;-71
2022/03/29 00:55:36;;;;;;;30.85;16.85;;;9.70;94.90;;;;;;4974900;28;20023;-71
2022/03/29 00:58:03;;;;;;;34.90;18.50;;;9.60;95.00;;;;;;4975378;28;20035;-71
2022/03/29 01:00:31;;;;;;;34.13;18.13;;;9.70;94.80;;;;;;4974893;28;20027;-71
2022/03/29 01:02:57;;;;;;;36.60;18.35;;;9.60;95.00;;;;;;4974738;28;20055;-71
2022/03/29 01:05:23;;;;;;;36.90;18.40;;;9.60;95.10;;;;;;4974834;28;20033;-72
2022/03/29 01:07:48;;;;;;;38.97;18.40;;;9.60;95.00;;;;;;4974603;28;20023;-70
2022/03/29 01:10:14;;;;;;;29.95;17.02;;;9.70;94.80;;;;;;4975224;28;20082;-70
2022/03/29 01:12:40;;;;;;;38.58;17.38;;;9.70;94.60;;;;;;4974470;28;20090;-71
2022/03/29 01:15:08;;;;;;;34.22;17.40;;;9.70;94.50;;;;;;4974499;28;20093;-70
2022/03/29 01:17:40;;;;;;;;;;;9.70;94.50;;;;;;4975000;28;20035;-72
2022/03/29 01:20:20;;;;;;;33.25;16.15;;;9.70;94.60;;;;;;4973623;28;19925;-70
2022/03/29 01:22:48;;;;;;;30.85;16.13;;;9.80;94.60;;;;;;4974703;28;20051;-71
2022/03/29 01:25:18;;;;;;;;;;;9.80;94.60;;;;;;4975430;28;20021;-73
2022/03/29 01:27:46;;;;;;;37.83;17.63;;;9.80;94.50;;;;;;4973321;28;19920;-70
2022/03/29 01:30:12;;;;;;;35.50;16.95;;;9.70;94.60;;;;;;4974400;28;20401;-71
2022/03/29 01:32:48;;;;;;;32.17;16.98;;;9.70;94.70;;;;;;4974322;28;20068;-70
2022/03/29 01:35:15;;;;;;;33.10;17.02;;;9.70;94.60;;;;;;4981218;28;20026;-70
2022/03/29 01:37:41;;;;;;;34.33;17.42;;;9.70;94.50;;;;;;4995851;28;20309;-70
2022/03/29 01:40:12;;;;;;;34.40;17.77;;;9.70;94.60;;;;;;5013698;28;20121;-71
2022/03/29 01:42:39;;;;;;;32.85;18.00;;;9.70;94.70;;;;;;4995789;28;20053;-70
2022/03/29 01:45:05;;;;;;;30.65;16.02;;;9.70;94.70;;;;;;5013101;28;20044;-71
2022/03/29 01:47:30;;;;;;;34.47;17.05;;;9.70;94.70;;;;;;5013015;28;20042;-71
2022/03/29 01:49:56;;;;;;;31.70;18.13;;;9.70;94.60;;;;;;4995390;28;20040;-71
2022/03/29 01:52:22;;;;;;;32.28;16.98;;;9.70;94.60;;;;;;5013469;28;20026;-71
2022/03/29 01:54:47;;;;;;;37.40;17.52;;;9.80;94.60;;;;;;5013148;28;20022;-70
2022/03/29 01:57:13;;;;;;;35.20;16.80;;;9.80;94.50;;;;;;5012777;28;20030;-70
2022/03/29 02:02:23;;;;;;;33.35;18.08;;;9.60;94.60;;;;;;5012532;28;20563;-69
2022/03/29 02:04:49;;;;;;;33.13;16.45;;;9.50;94.50;;;;;;5012777;28;20104;-71
2022/03/29 02:07:16;;;;;;;31.20;16.83;;;9.50;94.50;;;;;;5012895;28;20097;-71
2022/03/29 02:09:43;;;;;;;33.92;17.90;;;9.50;94.60;;;;;;5012462;28;20387;-70
2022/03/29 02:12:12;;;;;;;34.55;17.55;;;9.60;94.50;;;;;;4995128;28;20033;-70
2022/03/29 02:14:38;;;;;;;32.75;16.77;;;9.60;94.60;;;;;;5012370;28;20095;-70
2022/03/29 02:17:04;;;;;;;37.25;18.20;;;9.60;94.60;;;;;;5012285;28;20053;-70
2022/03/29 02:19:30;;;;;;;34.17;18.35;;;9.70;94.50;;;;;;5012725;28;20428;-71
2022/03/29 02:21:55;;;;;;;36.55;17.60;;;9.70;94.50;;;;;;5012282;28;20045;-72
2022/03/29 02:24:22;;;;;;;33.28;17.05;;;9.60;94.50;;;;;;5012157;28;20026;-71
2022/03/29 02:26:47;;;;;;;31.85;16.60;;;9.70;94.30;;;;;;5012127;28;20038;-71
2022/03/29 02:29:13;;;;;;;31.55;16.30;;;9.70;94.40;;;;;;5012286;28;20367;-72
2022/03/29 02:31:38;;;;;;;36.80;17.77;;;9.70;94.50;;;;;;5011951;28;20014;-70
2022/03/29 02:34:04;;;;;;;36.13;18.13;;;9.70;94.60;;;;;;5012624;28;20390;-71
2022/03/29 02:36:29;;;;;;;34.97;18.13;;;9.70;94.50;;;;;;5012194;28;20613;-71
2022/03/29 02:38:55;;;;;;;31.23;17.55;;;9.70;94.60;;;;;;5012200;28;20049;-70
2022/03/29 02:41:21;;;;;;;33.22;18.33;;;9.70;94.50;;;;;;5012201;28;20474;-71
2022/03/29 02:43:46;;;;;;;39.53;18.67;;;9.70;94.50;;;;;;5011999;28;20070;-71
2022/03/29 02:46:13;;;;;;;34.33;17.45;;;9.70;94.50;;;;;;5012478;28;20347;-72
2022/03/29 02:48:39;;;;;;;36.28;18.38;;;9.70;94.40;;;;;;5011991;28;20120;-71
2022/03/29 02:51:07;;;;;;;32.58;17.83;;;9.80;94.40;;;;;;5012081;28;20180;-71
2022/03/29 02:53:33;;;;;;;34.22;17.80;;;9.70;94.40;;;;;;5011839;28;20502;-72
2022/03/29 02:55:58;;;;;;;35.17;18.17;;;9.70;94.40;;;;;;5011681;28;20109;-71
2022/03/29 02:58:24;;;;;;;34.63;18.30;;;9.70;94.40;;;;;;5012185;28;20049;-70
2022/03/29 03:00:51;;;;;;;40.80;19.27;;;9.70;94.40;;;;;;5011590;28;20124;-72
2022/03/29 03:03:17;;;;;;;37.20;19.73;;;9.70;94.50;;;;;;5011769;28;20378;-71
2022/03/29 03:05:43;;;;;;;40.30;18.50;;;9.60;94.60;;;;;;5011580;28;20030;-70
2022/03/29 03:08:08;;;;;;;37.78;19.77;;;9.70;94.60;;;;;;5011396;28;20381;-71
2022/03/29 03:10:34;;;;;;;36.25;19.40;;;9.70;94.50;;;;;;4993929;28;20521;-69
2022/03/29 03:13:00;;;;;;;39.67;19.38;;;9.60;94.50;;;;;;5011733;28;20472;-71
2022/03/29 03:15:26;;;;;;;39.45;20.75;;;9.70;94.50;;;;;;5011448;28;20131;-72
2022/03/29 03:17:54;;;;;;;48.90;22.63;;;9.70;94.20;;;;;;5011602;28;20719;-70
2022/03/29 03:20:21;;;;;;;44.85;22.60;;;9.70;94.10;;;;;;5011334;28;20065;-69
2022/03/29 03:22:48;;;;;;;46.92;24.23;;;9.80;93.90;;;;;;4993959;28;20033;-71
2022/03/29 03:25:13;;;;;;;47.97;22.92;;;9.70;93.70;;;;;;5011695;28;20045;-72
2022/03/29 03:27:40;;;;;;;47.83;24.85;;;9.70;93.70;;;;;;5011013;28;20410;-70
2022/03/29 03:30:12;;;;;;;51.25;25.67;;;9.70;93.60;;;;;;5011299;28;20092;-70
2022/03/29 03:32:38;;;;;;;55.92;26.40;;;9.80;93.50;;;;;;5011178;28;20038;-71
2022/03/29 03:35:04;;;;;;;58.55;27.50;;;9.70;93.40;;;;;;5011082;28;20041;-70
2022/03/29 03:37:30;;;;;;;57.55;27.35;;;9.70;93.50;;;;;;5011468;28;20095;-71
2022/03/29 03:39:55;;;;;;;57.85;27.60;;;9.70;93.50;;;;;;5011105;28;20034;-71
2022/03/29 03:42:21;;;;;;;57.28;28.20;;;9.70;93.40;;;;;;5010532;28;20030;-71
2022/03/29 03:44:47;;;;;;;58.20;28.23;;;9.70;93.40;;;;;;5011053;28;20041;-71
2022/03/29 03:47:12;;;;;;;59.03;29.23;;;9.70;93.40;;;;;;5011023;28;20038;-71
2022/03/29 03:49:38;;;;;;;60.65;27.50;;;9.70;93.20;;;;;;5010954;28;20026;-71
2022/03/29 03:52:05;;;;;;;60.13;27.83;;;9.60;93.10;;;;;;5011289;28;20026;-71
2022/03/29 03:54:33;;;;;;;63.17;30.38;;;9.70;93.00;;;;;;5010939;28;20041;-70
2022/03/29 03:56:59;;;;;;;66.95;29.65;;;9.40;93.20;;;;;;5010925;28;20436;-72
2022/03/29 03:59:24;;;;;;;64.35;31.05;;;9.40;93.10;;;;;;5011113;28;20105;-71
2022/03/29 04:01:50;;;;;;;66.00;31.10;;;9.50;93.20;;;;;;4993108;28;20045;-71
2022/03/29 04:04:15;;;;;;;65.53;30.10;;;9.40;93.40;;;;;;5011573;28;20088;-71
2022/03/29 04:06:41;;;;;;;65.15;30.05;;;9.50;93.00;;;;;;5010869;28;20091;-70
2022/03/29 04:09:07;;;;;;;68.32;31.58;;;9.50;92.90;;;;;;5010843;28;20068;-71
2022/03/29 04:11:32;;;;;;;65.38;31.45;;;9.50;92.80;;;;;;5010776;28;20472;-71
2022/03/29 04:13:58;;;;;;;68.57;31.83;;;9.50;92.80;;;;;;5010849;28;20042;-71
2022/03/29 04:16:25;;;;;;;66.45;30.98;;;9.60;92.70;;;;;;5011181;28;20168;-71
2022/03/29 04:18:51;;;;;;;62.63;30.40;;;9.50;92.70;;;;;;5010646;28;20026;-72
2022/03/29 04:21:16;;;;;;;72.75;31.35;;;9.30;93.00;;;;;;5010701;28;20485;-71
2022/03/29 04:23:43;;;;;;;69.38;33.33;;;9.30;93.40;;;;;;5010609;28;20042;-71
2022/03/29 04:26:08;;;;;;;68.55;31.30;;;9.40;93.00;;;;;;5010614;28;20113;-71
2022/03/29 04:28:34;;;;;;;68.20;32.05;;;9.40;93.10;;;;;;5010425;28;20121;-70
2022/03/29 04:31:00;;;;;;;69.35;32.00;;;9.50;93.00;;;;;;5010956;28;20022;-71
2022/03/29 04:33:27;;;;;;;64.75;30.02;;;9.40;93.00;;;;;;5010617;28;20446;-71
2022/03/29 04:35:53;;;;;;;58.33;29.15;;;9.50;92.90;;;;;;5010616;28;20525;-69
2022/03/29 04:38:19;;;;;;;60.08;29.00;;;9.50;92.80;;;;;;5010381;28;20034;-72
2022/03/29 04:40:45;;;;;;;65.53;29.83;;;9.50;92.70;;;;;;5010469;28;20022;-71
2022/03/29 04:43:10;;;;;;;59.85;29.58;;;9.50;92.50;;;;;;5010910;28;20022;-72
2022/03/29 04:45:36;;;;;;;58.25;28.92;;;9.40;92.60;;;;;;5010455;28;20037;-71
2022/03/29 04:48:03;;;;;;;63.30;28.88;;;9.40;92.70;;;;;;5010367;28;20448;-72
2022/03/29 04:50:29;;;;;;;56.70;29.25;;;9.40;92.80;;;;;;5010554;28;20030;-70
2022/03/29 04:52:55;;;;;;;59.67;29.67;;;9.40;92.90;;;;;;5010380;28;20030;-72
2022/03/29 04:55:20;;;;;;;60.00;29.25;;;9.30;92.90;;;;;;5012336;28;20351;-71
2022/03/29 04:57:48;;;;;;;64.28;29.10;;;9.50;92.80;;;;;;5014027;28;20525;-71
2022/03/29 05:00:16;;;;;;;58.40;28.48;;;9.50;92.70;;;;;;5013930;28;20104;-71
2022/03/29 05:02:43;;;;;;;59.58;28.75;;;9.50;92.80;;;;;;4992927;28;20535;-70
2022/03/29 05:05:10;;;;;;;57.63;27.45;;;9.50;92.70;;;;;;4994382;28;20030;-72
2022/03/29 05:07:36;;;;;;;59.03;28.00;;;9.50;92.70;;;;;;4993206;28;20034;-72
2022/03/29 05:10:07;;;;;;;60.85;27.63;;;9.50;92.80;;;;;;4994510;28;20022;-71
2022/03/29 05:12:46;;;;;;;59.72;27.08;;;9.50;92.80;;;;;;4994506;28;20031;-71
2022/03/29 05:15:15;;;;;;;61.60;27.50;;;9.40;92.90;;;;;;4994404;28;20038;-72
2022/03/29 05:17:42;;;;;;;58.67;26.48;;;9.40;93.00;;;;;;4994103;28;20034;-71
2022/03/29 05:20:09;;;;;;;57.22;28.48;;;9.30;93.10;;;;;;4994211;28;20034;-70
2022/03/29 05:22:50;;;;;;;55.88;27.27;;;9.20;93.40;;;;;;4994088;28;20054;-69
2022/03/29 05:25:18;;;;;;;56.33;27.08;;;9.30;93.30;;;;;;4994499;28;20050;-70
2022/03/29 05:27:44;;;;;;;51.40;25.10;;;9.50;93.10;;;;;;4992652;28;20476;-70
2022/03/29 05:30:12;;;;;;;60.78;26.70;;;9.40;93.10;;;;;;4975338;28;20031;-69
2022/03/29 05:32:38;;;;;;;53.42;27.05;;;9.40;93.00;;;;;;4974639;28;20098;-72
2022/03/29 05:35:05;;;;;;;54.50;26.88;;;9.50;93.10;;;;;;4974795;28;20047;-72
2022/03/29 05:37:31;;;;;;;59.47;27.50;;;9.50;93.00;;;;;;4973591;28;20453;-70
2022/03/29 05:39:57;;;;;;;53.03;25.38;;;9.50;92.90;;;;;;4973871;28;20039;-70
2022/03/29 05:42:22;;;;;;;57.63;27.77;;;9.60;92.90;;;;;;4972920;28;20031;-71
2022/03/29 05:44:48;;;;;;;52.80;25.40;;;9.60;92.90;;;;;;4974373;28;20046;-75
2022/03/29 05:49:57;;;;;;;60.95;27.95;;;9.60;92.80;;;;;;4973954;28;20093;-71
2022/03/29 05:52:23;;;;;;;54.65;26.08;;;9.60;92.80;;;;;;4974334;28;20105;-72
2022/03/29 05:54:49;;;;;;;56.28;28.23;;;9.50;92.80;;;;;;4974067;28;20034;-73
2022/03/29 05:57:16;;;;;;;59.83;28.25;;;9.30;93.00;;;;;;4973749;28;20031;-71
2022/03/29 05:59:43;;;;;;;57.38;27.80;;;9.40;93.00;;;;;;4988948;28;20516;-72
2022/03/29 06:02:08;;;;;;;57.60;27.20;;;9.30;93.00;;;;;;4979600;28;20491;-72
2022/03/29 06:04:35;;;;;;;58.67;28.13;;;9.50;93.00;;;;;;4993016;28;20027;-71
2022/03/29 06:07:02;;;;;;;49.58;26.30;;;9.60;92.80;;;;;;4976079;28;20086;-71
2022/03/29 06:09:27;;;;;;;65.35;25.83;;;9.60;92.60;;;;;;4992924;28;20117;-71
2022/03/29 06:11:53;;;;;;;54.88;25.65;;;9.60;92.50;;;;;;4992785;28;20121;-71
2022/03/29 06:14:20;;;;;;;59.30;26.38;;;9.60;92.50;;;;;;4992572;28;20178;-70
2022/03/29 06:16:45;;;;;;;57.10;25.67;;;9.60;92.60;;;;;;4991882;28;20041;-71
2022/03/29 06:19:11;;;;;;;55.20;24.08;;;9.60;92.40;;;;;;4992860;28;20116;-72
2022/03/29 06:21:38;;;;;;;54.75;24.92;;;9.60;92.40;;;;;;4992312;28;20085;-71
2022/03/29 06:24:08;;;;;;;56.38;25.00;;;9.60;92.50;;;;;;4975072;28;20033;-71
2022/03/29 06:26:39;;;;;;;50.33;24.95;;;9.60;92.40;;;;;;4992508;28;20365;-71
2022/03/29 06:29:09;;;;;;;51.15;25.00;;;9.80;92.40;;;;;;4991364;28;20073;-74
2022/03/29 06:31:35;;;;;;;54.28;24.02;;;9.60;92.30;;;;;;4992521;28;20093;-72
2022/03/29 06:34:02;;;;;;;51.08;24.23;;;9.60;92.30;;;;;;4991115;28;20475;-70
2022/03/29 06:36:28;;;;;;;51.58;22.92;;;9.70;92.20;;;;;;4992194;28;20100;-71
2022/03/29 06:38:54;;;;;;;49.13;24.92;;;9.70;92.10;;;;;;4992115;28;20320;-68
2022/03/29 06:41:21;;;;;;;50.65;23.73;;;9.70;92.00;;;;;;4974785;28;20371;-74
2022/03/29 06:43:47;;;;;;;53.20;25.27;;;9.80;92.10;;;;;;4991949;28;20037;-69
2022/03/29 06:46:12;;;;;;;54.42;26.45;;;9.80;92.10;;;;;;4992062;28;20113;-70
2022/03/29 06:48:41;;;;;;;52.80;25.45;;;9.80;92.00;;;;;;4974562;28;20125;-71
2022/03/29 06:51:09;;;;;;;53.05;26.88;;;9.60;92.20;;;;;;4991780;28;20090;-72
2022/03/29 06:53:35;;;;;;;52.97;24.85;;;9.70;92.10;;;;;;4991820;28;20097;-72
2022/03/29 06:56:00;;;;;;;53.05;24.80;;;9.70;92.10;;;;;;4990547;28;20026;-70
2022/03/29 06:58:26;;;;;;;55.15;26.08;;;9.80;92.00;;;;;;4992148;28;20376;-71
2022/03/29 07:00:52;;;;;;;56.42;25.60;;;9.80;92.00;;;;;;4991607;28;20026;-70
2022/03/29 07:03:20;;;;;;;55.78;26.65;;;9.90;91.90;;;;;;4991375;28;20042;-68
2022/03/29 07:05:48;;;;;;;;;;;9.90;92.00;;;;;;4992134;28;20117;-70
2022/03/29 07:08:16;;;;;;;55.03;24.42;;;9.90;91.90;;;;;;4991300;28;20363;-70
2022/03/29 07:13:26;;;;;;;61.30;27.15;;;9.80;91.90;;;;;;4991744;28;20054;-69
2022/03/29 07:15:52;;;;;;;53.67;26.90;;;9.80;91.80;;;;;;4991260;28;20042;-72
2022/03/29 07:18:19;;;;;;;48.40;25.38;;;9.90;91.80;;;;;;4990600;28;20050;-71
2022/03/29 07:20:44;;;;;;;49.30;25.48;;;9.90;91.80;;;;;;4973848;28;20093;-70
2022/03/29 07:23:10;;;;;;;55.17;24.65;;;10.00;91.50;;;;;;4990974;28;20023;-70
2022/03/29 07:25:37;;;;;;;58.33;26.30;;;10.00;91.20;;;;;;4991220;28;20065;-70
2022/03/29 07:28:04;;;;;;;54.08;25.83;;;10.00;90.90;;;;;;4991619;28;20279;-69
2022/03/29 07:30:31;;;;;;;50.05;25.55;;;10.00;91.10;;;;;;4991134;28;20030;-70
2022/03/29 07:32:58;;;;;;;55.38;26.92;;;9.90;91.50;;;;;;4989992;28;20088;-70
2022/03/29 07:35:26;;;;;;;54.17;25.85;;;9.90;91.40;;;;;;4991239;28;20029;-71
2022/03/29 07:37:52;;;;;;;53.17;26.02;;;10.00;90.90;;;;;;4990816;28;20046;-71
2022/03/29 07:40:22;;;;;;;56.20;26.38;;;10.00;90.80;;;;;;4974044;28;20049;-69
2022/03/29 07:42:49;;;;;;;53.92;26.27;;;10.00;90.90;;;;;;4990668;28;20130;-71
2022/03/29 07:45:16;;;;;;;62.03;26.80;;;10.00;90.80;;;;;;4990294;28;20046;-71
2022/03/29 07:47:42;;;;;;;57.85;27.33;;;10.00;90.90;;;;;;4990718;28;20034;-71
2022/03/29 07:50:10;;;;;;;58.25;26.02;;;10.00;90.80;;;;;;4990883;28;20125;-70
2022/03/29 07:52:37;;;;;;;50.75;25.45;;;10.00;90.70;;;;;;4990581;28;20121;-69
2022/03/29 07:55:06;;;;;;;56.33;26.02;;;10.10;90.80;;;;;;4991006;28;20460;-69
2022/03/29 07:57:32;;;;;;;54.72;27.08;;;10.10;90.90;;;;;;4990471;28;20069;-70
2022/03/29 07:59:58;;;;;;;57.58;26.83;;;10.10;90.60;;;;;;4990562;28;20427;-70
2022/03/29 08:02:24;;;;;;;59.40;28.60;;;10.10;90.60;;;;;;4990198;28;20064;-71
2022/03/29 08:04:49;;;;;;;59.80;27.05;;;10.10;90.70;;;;;;4990316;28;20117;-71
2022/03/29 08:07:15;;;;;;;61.50;28.27;;;10.10;90.60;;;;;;4973499;28;20102;-70
2022/03/29 08:09:40;;;;;;;56.72;26.30;;;10.10;90.70;;;;;;4990447;28;20368;-72
2022/03/29 08:12:07;;;;;;;58.17;27.80;;;10.20;90.70;;;;;;4990495;28;20042;-73
2022/03/29 08:14:32;;;;;;;56.00;27.42;;;10.20;90.50;;;;;;4973174;28;20069;-74
2022/03/29 08:16:58;;;;;;;58.85;26.30;;;10.20;90.30;;;;;;4990384;28;20468;-74
2022/03/29 08:19:24;;;;;;;48.75;25.83;;;10.20;90.10;;;;;;4973530;28;20022;-73
2022/03/29 08:21:49;;;;;;;60.83;26.45;;;10.10;89.90;;;;;;4989312;28;20023;-72
2022/03/29 08:24:20;;;;;;;55.55;26.10;;;9.90;90.60;;;;;;4990052;28;20407;-71
2022/03/29 08:26:48;;;;;;;57.90;26.38;;;9.90;90.60;;;;;;4972902;28;20034;-71
2022/03/29 08:29:16;;;;;;;50.05;23.30;;;10.10;90.20;;;;;;4991862;28;20113;-73
2022/03/29 08:31:47;;;;;;;47.70;22.83;;;10.20;90.00;;;;;;4994095;28;20105;-73
2022/03/29 08:34:13;;;;;;;51.83;24.73;;;10.30;89.90;;;;;;4994773;28;20029;-71
2022/03/29 08:36:39;;;;;;;53.53;24.48;;;10.40;89.50;;;;;;4994421;28;20215;-70
2022/03/29 08:39:09;;;;;;;43.30;22.08;;;10.40;89.40;;;;;;4976373;28;20105;-71
2022/03/29 08:41:44;;;;;;;47.17;22.85;;;10.30;89.10;;;;;;4994131;28;20053;-72
2022/03/29 08:44:10;;;;;;;53.67;23.23;;;10.10;89.10;;;;;;4994248;28;20030;-71
2022/03/29 08:46:38;;;;;;;48.05;22.67;;;10.20;89.70;;;;;;4993883;28;20105;-71
2022/03/29 08:49:07;;;;;;;;;;;10.30;89.50;;;;;;4995144;28;20034;-73
2022/03/29 08:51:34;;;;;;;53.47;24.17;;;10.50;89.20;;;;;;4994027;28;19913;-70
2022/03/29 08:54:00;;;;;;;53.92;22.75;;;10.40;89.10;;;;;;4993936;28;20105;-74
2022/03/29 08:56:26;;;;;;;53.42;24.45;;;10.50;88.70;;;;;;4994014;28;20588;-75
2022/03/29 08:58:51;;;;;;;59.92;23.77;;;10.60;88.20;;;;;;4993757;28;20030;-71
2022/03/29 09:01:22;;;;;;;48.50;23.48;;;10.40;88.30;;;;;;4992979;28;20093;-73
2022/03/29 09:04:07;;;;;;;49.90;23.00;;;10.60;88.20;;;;;;4993590;28;20357;-71
2022/03/29 09:06:32;;;;;;;46.85;21.75;;;10.70;87.70;;;;;;4993905;28;20408;-69
2022/03/29 09:08:58;;;;;;;55.85;22.67;;;10.80;88.10;;;;;;4975974;28;20106;-70
2022/03/29 09:11:24;;;;;;;51.28;22.00;;;10.90;87.10;;;;;;4993595;28;20031;-72
2022/03/29 09:14:05;;;;;;;49.10;23.65;;;10.80;86.90;;;;;;4993813;28;20082;-71
2022/03/29 09:16:34;;;;;;;49.63;22.90;;;11.10;87.50;;;;;;4993997;28;20110;-71
2022/03/29 09:19:00;;;;;;;49.10;22.92;;;11.00;86.90;;;;;;5012128;28;20030;-71
2022/03/29 09:21:27;;;;;;;52.88;23.23;;;11.00;86.80;;;;;;5011936;28;20034;-70
2022/03/29 09:24:23;;;;;;;49.92;23.45;;;10.90;86.10;;;;;;4995389;28;20041;-72
2022/03/29 09:26:54;;;;;;;51.75;22.17;;;11.00;86.50;;;;;;5003171;28;20030;-70
2022/03/29 09:29:23;;;;;;;54.22;23.83;;;11.10;86.30;;;;;;5012745;28;20042;-70
2022/03/29 09:32:07;;;;;;;47.60;22.98;;;11.20;86.20;;;;;;4995339;28;20340;-70
2022/03/29 09:34:33;;;;;;;49.30;23.92;;;11.30;86.20;;;;;;5013080;28;20026;-71
2022/03/29 09:37:02;;;;;;;55.42;25.55;;;11.20;85.70;;;;;;5012539;28;20044;-71
2022/03/29 09:39:39;;;;;;;51.50;25.08;;;11.30;85.70;;;;;;5012822;28;20034;-71
2022/03/29 09:42:09;;;;;;;57.20;26.33;;;11.30;85.80;;;;;;5011985;28;20042;-71
2022/03/29 09:44:45;;;;;;;54.58;23.98;;;11.30;85.70;;;;;;4995146;28;20040;-71
2022/03/29 09:47:13;;;;;;;51.38;23.33;;;11.30;85.50;;;;;;4994823;28;20117;-71
2022/03/29 09:49:55;;;;;;;48.88;22.95;;;11.30;85.30;;;;;;5010968;28;20026;-71
2022/03/29 09:52:26;;;;;;;50.13;25.73;;;11.30;85.50;;;;;;5012665;28;20525;-73
2022/03/29 09:55:07;;;;;;;47.15;24.38;;;11.30;85.50;;;;;;5012309;28;20514;-71
2022/03/29 09:57:53;;;;;;;62.25;26.17;;;11.30;85.40;;;;;;4994866;28;20030;-72
2022/03/29 10:00:24;;;;;;;58.00;25.77;;;11.30;85.20;;;;;;5012133;28;20064;-70
2022/03/29 10:02:50;;;;;;;52.33;25.73;;;11.40;85.20;;;;;;5011814;28;20038;-71
2022/03/29 10:05:18;;;;;;;51.70;26.50;;;11.40;85.10;;;;;;5012134;28;20041;-70
2022/03/29 10:09:25;;;;;;;63.13;26.98;;;11.40;85.10;;;;;;5011798;28;20026;-71
2022/03/29 10:10:47;;;;;;;56.88;25.52;;;11.50;85.10;;;;;;5011689;28;20034;-72
2022/03/29 10:13:14;;;;;;;57.90;26.92;;;11.50;85.00;;;;;;5011140;28;20022;-72
2022/03/29 10:15:41;;;;;;;64.72;29.80;;;11.60;84.90;;;;;;5011710;28;20063;-72
2022/03/29 10:18:07;;;;;;;64.10;30.77;;;11.70;84.70;;;;;;5012109;28;20514;-71
2022/03/29 10:20:36;;;;;;;65.05;29.60;;;11.80;84.50;;;;;;5011889;28;20065;-71
2022/03/29 10:23:02;;;;;;;65.63;34.22;;;11.80;84.30;;;;;;4994456;28;20115;-71
2022/03/29 10:25:28;;;;;;;58.45;29.17;;;11.80;84.40;;;;;;5012239;28;20188;-71
2022/03/29 10:27:56;;;;;;;63.60;29.52;;;11.90;84.90;;;;;;5011483;28;20326;-71
2022/03/29 10:30:36;;;;;;;63.77;32.17;;;11.80;84.20;;;;;;4994261;28;20327;-71
2022/03/29 10:33:23;;;;;;;58.47;30.10;;;11.90;84.20;;;;;;5011453;28;20030;-70
2022/03/29 10:36:09;;;;;;;59.63;28.52;;;12.10;84.20;;;;;;5011623;28;20026;-71
2022/03/29 10:38:46;;;;;;;61.08;28.35;;;11.80;83.00;;;;;;5011227;28;20030;-70
2022/03/29 10:41:30;;;;;;;67.43;29.10;;;12.10;83.80;;;;;;5011120;28;20034;-72
2022/03/29 10:44:01;;;;;;;55.60;25.67;;;12.40;82.80;;;;;;5011424;28;20032;-72
2022/03/29 10:46:43;;;;;;;56.90;26.60;;;12.40;81.90;;;;;;5011958;28;20493;-72
2022/03/29 10:49:20;;;;;;;51.40;26.20;;;12.50;81.40;;;;;;5011532;28;20528;-72
2022/03/29 10:51:47;;;;;;;50.97;25.37;;;12.80;81.40;;;;;;5011057;28;20110;-74
2022/03/29 10:54:33;;;;;;;62.27;27.57;;;13.20;80.40;;;;;;5010869;28;20357;-73
2022/03/29 10:57:06;;;;;;;54.30;26.30;;;13.50;79.70;;;;;;5011156;28;20364;-75
2022/03/29 10:59:35;;;;;;;60.33;28.05;;;13.60;80.20;;;;;;5011137;28;20037;-72
2022/03/29 11:02:15;;;;;;;60.35;28.85;;;14.00;78.90;;;;;;5010640;28;20112;-77
2022/03/29 11:05:01;;;;;;;60.58;29.30;;;14.50;77.30;;;;;;4993723;28;20018;-72
2022/03/29 11:07:26;;;;;;;59.33;26.75;;;14.60;75.70;;;;;;5011642;28;20103;-74
2022/03/29 11:10:15;;;;;;;59.63;27.83;;;14.60;75.30;;;;;;5011295;28;20125;-72
2022/03/29 11:12:54;;;;;;;51.88;25.85;;;14.10;74.80;;;;;;5010551;28;20205;-73
2022/03/29 11:15:27;;;;;;;49.78;25.55;;;14.40;75.10;;;;;;5011022;28;20045;-73
2022/03/29 11:17:54;;;;;;;50.13;25.30;;;14.20;74.50;;;;;;5010957;28;20478;-73
2022/03/29 11:20:29;;;;;;;51.95;25.30;;;14.30;74.80;;;;;;4993458;28;20430;-74
2022/03/29 11:22:58;;;;;;;48.70;23.77;;;14.70;74.20;;;;;;5010718;28;20126;-73
2022/03/29 11:25:24;;;;;;;45.88;24.95;;;15.30;74.50;;;;;;5011301;28;20054;-71
2022/03/29 11:27:50;;;;;;;43.53;22.63;;;15.90;72.60;;;;;;5010519;28;20061;-72
2022/03/29 11:30:16;;;;;;;50.13;23.98;;;16.00;71.20;;;;;;5010715;28;20422;-71
2022/03/29 11:32:43;;;;;;;48.72;22.80;;;16.40;68.40;;;;;;5010504;28;20394;-73
2022/03/29 11:35:11;;;;;;;49.75;25.33;;;16.50;68.30;;;;;;5010810;28;20062;-71
2022/03/29 11:37:44;;;;;;;51.50;24.38;;;16.20;68.50;;;;;;5010315;28;20036;-73
2022/03/29 11:40:13;;;;;;;41.63;22.90;;;16.00;68.00;;;;;;5010908;28;20469;-72
2022/03/29 11:42:49;;;;;;;44.40;23.08;;;15.80;68.60;;;;;;5011019;28;20040;-71
2022/03/29 11:45:19;;;;;;;42.97;22.88;;;16.20;67.40;;;;;;5010236;28;20045;-71
2022/03/29 11:48:04;;;;;;;48.90;22.80;;;16.10;67.50;;;;;;5010415;28;20092;-72
2022/03/29 11:50:32;;;;;;;51.03;22.52;;;15.90;67.70;;;;;;5010615;28;20066;-72
2022/03/29 11:52:58;;;;;;;45.78;22.27;;;16.10;67.40;;;;;;5010467;28;20526;-72
2022/03/29 11:55:25;;;;;;;42.90;22.92;;;15.80;67.10;;;;;;5010635;28;20037;-71
2022/03/29 11:57:52;;;;;;;43.38;21.30;;;15.60;66.80;;;;;;5009221;28;20026;-71
2022/03/29 12:00:28;;;;;;;44.63;23.27;;;15.60;67.40;;;;;;5010135;28;20034;-72
2022/03/29 12:02:54;;;;;;;44.03;21.83;;;15.90;67.40;;;;;;5009840;28;20110;-73
2022/03/29 12:05:25;;;;;;;43.28;21.50;;;15.90;66.90;;;;;;5014086;28;20022;-72
2022/03/29 12:08:05;;;;;;;45.95;21.92;;;16.00;66.80;;;;;;5014330;28;20064;-71
2022/03/29 12:10:34;;;;;;;40.60;20.80;;;16.10;66.40;;;;;;5014728;28;20018;-72
2022/03/29 12:13:00;;;;;;;35.55;19.73;;;16.10;66.20;;;;;;5014485;28;20653;-73
2022/03/29 12:15:26;;;;;;;47.75;20.17;;;16.00;66.00;;;;;;5014277;28;20037;-73
2022/03/29 12:18:42;;;;;;;40.05;20.45;;;15.80;66.50;;;;;;5014476;28;20030;-73
2022/03/29 12:20:44;;;;;;;44.30;19.45;;;15.60;66.30;;;;;;5006562;28;20383;-74
2022/03/29 12:23:24;;;;;;;40.53;20.90;;;15.10;67.30;;;;;;5013980;28;20034;-73
2022/03/29 12:25:50;;;;;;;37.53;19.63;;;15.20;67.50;;;;;;4996579;28;20033;-74
2022/03/29 12:28:19;;;;;;;44.25;17.63;;;15.50;67.40;;;;;;5014485;28;20022;-73
2022/03/29 12:30:45;;;;;;;32.88;18.27;;;15.60;66.60;;;;;;5013947;28;20026;-72
2022/03/29 12:33:11;;;;;;;41.28;17.42;;;15.60;65.50;;;;;;5014243;28;20050;-73
2022/03/29 12:35:36;;;;;;;39.88;18.75;;;15.30;65.80;;;;;;5013991;28;20141;-72
2022/03/29 12:38:06;;;;;;;36.25;17.90;;;15.30;66.20;;;;;;5013757;28;20034;-72
2022/03/29 12:40:32;;;;;;;38.75;18.15;;;15.30;66.40;;;;;;4996176;28;20037;-73
2022/03/29 12:43:05;;;;;;;33.42;17.98;;;15.50;66.10;;;;;;5013643;28;20038;-72
2022/03/29 12:45:33;;;;;;;33.95;18.58;;;15.60;66.60;;;;;;5013396;28;20472;-72
2022/03/29 12:47:59;;;;;;;32.30;18.45;;;15.40;65.80;;;;;;5013621;28;20040;-71